• Join FlightAware (Why Join?)
  • Login
  • US Flag 
09:48AM EDT


 

Airport Tracker/Info


-or-


 

Live Flight TrackerFlight Track Log ✈ SWA1181 ✈ 11-May-2013 ✈ KBUF - KMDW

Flight Track Log - Related Links

Times and Time Zones

All times are in EDT time to prevent confusion due to time zone crossing. See the SWA1181 flight status page for this flight to view local times or setup timezone preferences in your user account.

Time Position Orientation Groundspeed Altitude Reporting Facility
EDT Latitude Longitude Course Direction KTS MPH feet Rate Location/Type
04:59PM 42.9333 -78.7500 180° South 143 165 1,800  Level Buffalo TRACON
04:59PM 42.9167 -78.7500 180° South 144 166 2,300 2,220 Climbing Buffalo TRACON
05:01PM 42.8158 -78.8311 211° Southwest 252 290 6,800 2,640 Climbing Cleveland Center
05:02PM 42.7475 -78.8586 196° South 266 306 10,100 2,460 Climbing Cleveland Center
05:03PM 42.6667 -78.8975 199° South 279 321 11,800 2,460 Climbing Cleveland Center
05:04PM 42.5736 -78.9422 199° South 322 371 15,100 3,120 Climbing Cleveland Center
05:05PM 42.4806 -78.9869 200° South 348 400 18,100 3,300 Climbing Cleveland Center
05:06PM 42.3769 -79.0317 198° South 361 415 21,700 3,360 Climbing Cleveland Center
05:07PM 42.2928 -78.9806 156° South 339 390 24,900 2,400 Climbing Cleveland Center
05:08PM 42.1931 -78.9969 187° South 339 390 26,500 1,800 Climbing Cleveland Center
05:09PM 42.1122 -79.0408 202° Southwest 339 390 28,600 1,800 Climbing Cleveland Center
05:10PM 42.0167 -79.0739 194° South 344 396 30,100 1,440 Climbing Cleveland Center
05:11PM 41.9386 -79.1456 214° Southwest 349 402 31,500 1,200 Climbing Cleveland Center
05:12PM 41.9067 -79.2803 252° West 327 376 32,500 960 Climbing Cleveland Center
05:13PM 41.8936 -79.4283 263° West 342 394 33,500 840 Climbing Cleveland Center
05:14PM 41.8658 -79.5711 255° West 379 436 34,200 1,080 Climbing Cleveland Center
05:15PM 41.8378 -79.7164 256° West 394 453 35,700 900 Climbing Cleveland Center
05:16PM 41.8139 -79.8561 257° West 399 459 36,000 120 Climbing Cleveland Center
05:17PM 41.7875 -79.9956 256° West 391 450 36,000  Level Cleveland Center
05:18PM 41.7611 -80.1322 256° West 391 450 36,000  Level Cleveland Center
05:19PM 41.7344 -80.2714 256° West 391 450 36,000  Level Cleveland Center
05:20PM 41.7097 -80.4053 256° West 391 450 36,000  Level Cleveland Center
05:21PM 41.6806 -80.5442 254° West 391 450 36,000  Level Cleveland Center
05:22PM 41.6578 -80.6806 257° West 385 443 36,000  Level Cleveland Center
05:23PM 41.6303 -80.8164 255° West 380 437 36,000  Level Cleveland Center
05:24PM 41.6028 -80.9553 255° West 380 437 36,000  Level Cleveland Center
05:25PM 41.5775 -81.0772 255° West 380 437 36,000  Level Cleveland Center
05:26PM 41.5517 -81.2131 256° West 380 437 36,000  Level Cleveland Center
05:27PM 41.5239 -81.3486 255° West 380 437 36,000  Level Cleveland Center
05:28PM 41.5000 -81.4786 256° West 371 427 36,000  Level Cleveland Center
05:29PM 41.4428 -81.5914 236° Southwest 363 418 36,000  Level Cleveland Center
05:30PM 41.3814 -81.6928 231° Southwest 366 421 36,000  Level Cleveland Center
05:31PM 41.3178 -81.7942 230° Southwest 366 421 36,000  Level Cleveland Center
05:32PM 41.2519 -81.9033 231° Southwest 371 427 36,000  Level Cleveland Center
05:33PM 41.1861 -82.0039 229° Southwest 371 427 36,000  Level Cleveland Center
05:34PM 41.1572 -82.1303 253° West 356 410 36,000  Level Cleveland Center
05:35PM 41.1803 -82.2689 283° West 362 417 36,000  Level Cleveland Center
05:36PM 41.1992 -82.4044 281° West 372 428 36,000  Level Cleveland Center
05:37PM 41.2178 -82.5431 280° West 377 434 36,000  Level Cleveland Center
05:38PM 41.2361 -82.6789 280° West 377 434 36,000  Level Cleveland Center
05:39PM 41.2561 -82.8286 280° West 372 428 36,000  Level Cleveland Center
05:40PM 41.2744 -82.9647 280° West 372 428 36,000  Level Cleveland Center
05:41PM 41.2903 -83.1008 279° West 372 428 36,000  Level Cleveland Center
05:42PM 41.3081 -83.2342 280° West 372 428 36,000  Level Cleveland Center
05:43PM 41.3236 -83.3675 279° West 372 428 36,000  Level Cleveland Center
05:44PM 41.3411 -83.5039 280° West 372 428 36,000  Level Cleveland Center
05:45PM 41.3547 -83.6206 279° West 372 428 36,000  Level Cleveland Center
05:46PM 41.3719 -83.7542 280° West 372 428 36,000  Level Cleveland Center
05:48PM 41.4075 -84.0242 280° West 357 411 36,000  Level Chicago Center
05:49PM 41.4231 -84.1564 279° West 361 415 36,000 -360 Level Chicago Center
05:50PM 41.4386 -84.2914 279° West 368 423 35,300 -1,320 Descending Chicago Center
05:51PM 41.4539 -84.4217 279° West 360 414 33,300 -1,920 Descending Chicago Center
05:52PM 41.4694 -84.5472 279° West 347 399 31,400 -1,620 Descending Chicago Center
05:53PM 41.4819 -84.6667 278° West 330 380 30,000 -720 Descending Chicago Center
05:54PM 41.4856 -84.7886 272° West 328 377 30,000 -420 Level Chicago Center
05:55PM 41.4928 -84.9519 273° West 365 420 29,200 -900 Descending Chicago Center
05:56PM 41.4975 -85.0939 273° West 380 437 28,200 -600 Descending Chicago Center
05:57PM 41.5014 -85.2344 272° West 379 436 28,000 -300 Descending Chicago Center
05:59PM 41.5058 -85.3775 272° West 379 436 27,700 -600 Descending Chicago Center
06:00PM 41.5106 -85.5253 272° West 388 447 26,800 -1,380 Descending Chicago Center
06:01PM 41.5147 -85.6717 272° West 389 448 24,900 -1,980 Descending Chicago Center
06:02PM 41.5189 -85.8156 272° West 387 445 22,800 -1,560 Descending Chicago Center
06:03PM 41.5225 -85.9447 272° West 346 398 21,800 -1,200 Descending Chicago Center
06:04PM 41.5247 -86.0531 272° West 296 341 20,400 -1,740 Descending Chicago Center
06:05PM 41.5242 -86.1503 270° West 266 306 18,300 -2,160 Descending Chicago Center
06:06PM 41.5239 -86.2486 270° West 265 305 16,000 -2,160 Descending Chicago Center
06:07PM 41.5236 -86.3433 270° West 258 297 13,900 -2,220 Descending Chicago Center
06:08PM 41.5225 -86.4558 269° West 254 292 11,500 -2,040 Descending Chicago Center
06:09PM 41.5203 -86.5472 268° West 247 284 9,800 -1,500 Descending Chicago Center
06:10PM 41.4644 -86.6086 219° Southwest 258 297 8,500 -1,140 Descending Chicago Center
06:11PM 41.4275 -86.6806 236° Southwest 242 278 7,500 -1,020 Descending Chicago Center
06:12PM 41.4392 -86.7742 279° West 239 275 6,500 -780 Descending Chicago Center
06:13PM 41.4564 -86.8586 285° West 239 275 6,000 -300 Descending Chicago Center
06:14PM 41.4731 -86.9425 285° West 237 273 6,000  Level Chicago Center
06:15PM 41.4897 -87.0269 285° West 237 273 6,000  Level Chicago Center
06:16PM 41.5072 -87.1111 286° West 237 273 6,000  Level Chicago Center
06:16PM 41.5167 -87.1500 288° West 206 237 6,000  Level Chicago TRACON
06:17PM 41.5167 -87.2333 270° West 201 231 6,000 -60 Level Chicago TRACON
06:18PM 41.4833 -87.2833 228° Southwest 184 212 5,900 -240 Descending Chicago TRACON
06:19PM 41.5000 -87.3500 288° West 168 193 5,600 -480 Descending Chicago TRACON
06:20PM 41.5117 -87.3792 298° West 167 192 5,100 -660 Descending Chicago Center
06:21PM 41.5347 -87.4350 299° West 172 198 4,500 -540 Descending Chicago Center
06:22PM 41.5664 -87.4792 314° West 176 203 4,000 -300 Descending Chicago Center
06:23PM 41.6061 -87.5064 333° Northwest 169 194 4,000  Level Chicago Center
06:24PM 41.6472 -87.5558 318° Northwest 167 192 4,000 -240 Level Chicago Center
06:25PM 41.6775 -87.6014 312° West 166 191 3,600 -720 Descending Chicago Center
06:27PM 41.7701 -87.7303 340° North  Level Estimated
06:27PM 41.7333 -87.6833 340° North 145 167 1,900  Level Chicago TRACON
06:28PM 41.7667 -87.7167 323° Northwest 126 145 1,200 -720 Descending Chicago TRACON
06:31PM 41.7833 -87.7500 North  Level FlightAware Approximate